Terminal Aerodrome Forecast
Issued by NWS Caribou, ME

Home | Current Version | Previous Version | Text Only | Print | Product List | Glossary On
Versions: 1 2 3 4 5 6 7 8 9 10 11 12 13 14 15 16 17 18 19 20 21
000
FTUS41 KCAR 242334
TAFCAR
TAF
KCAR 242334Z 2500/2524 07011G21KT 3SM -PL SCT015 OVC025
     FM250200 07012G22KT 2SM -FZRAPL OVC008
     FM251000 07010G20KT 2SM -RAPL OVC007
     FM251800 04006KT 2SM -RAPL SCT007 OVC010
     FM252200 34004KT 3SM -RAPL OVC008=

USA.gov is the U.S. government's official web portal to all federal, state and local government web resources and services.